sensor_id;sensor_type;location;lat;lon;timestamp;pressure;altitude;pressure_sealevel;temperature;humidity
71344;BME280;59146;43.850;25.948;2023-04-07T00:02:28;100840.59;;;5.06;53.96
71344;BME280;59146;43.850;25.948;2023-04-07T00:04:53;100870.47;;;5.16;54.69
71344;BME280;59146;43.850;25.948;2023-04-07T00:07:20;100887.97;;;5.34;54.86
71344;BME280;59146;43.850;25.948;2023-04-07T00:09:45;100911.09;;;5.40;54.49
71344;BME280;59146;43.850;25.948;2023-04-07T00:12:11;100901.91;;;5.32;55.31
71344;BME280;59146;43.850;25.948;2023-04-07T00:14:36;100887.59;;;5.20;55.75
71344;BME280;59146;43.850;25.948;2023-04-07T00:17:03;100838.94;;;5.04;55.27
71344;BME280;59146;43.850;25.948;2023-04-07T00:19:28;100873.19;;;5.12;55.41
71344;BME280;59146;43.850;25.948;2023-04-07T00:21:53;100825.81;;;4.82;55.91
71344;BME280;59146;43.850;25.948;2023-04-07T00:24:19;100905.44;;;5.29;56.35
71344;BME280;59146;43.850;25.948;2023-04-07T00:26:45;100835.25;;;4.84;56.03
71344;BME280;59146;43.850;25.948;2023-04-07T00:29:10;100907.91;;;5.32;55.98
71344;BME280;59146;43.850;25.948;2023-04-07T00:31:35;100857.84;;;5.06;56.26
71344;BME280;59146;43.850;25.948;2023-04-07T00:34:01;100910.53;;;5.31;56.38
71344;BME280;59146;43.850;25.948;2023-04-07T00:36:26;100913.34;;;5.25;56.75
71344;BME280;59146;43.850;25.948;2023-04-07T00:38:52;100830.97;;;4.83;56.47
71344;BME280;59146;43.850;25.948;2023-04-07T00:41:18;100890.13;;;5.22;56.43
71344;BME280;59146;43.850;25.948;2023-04-07T00:43:43;100877.34;;;5.17;56.68
71344;BME280;59146;43.850;25.948;2023-04-07T00:46:10;100876.50;;;5.17;56.67
71344;BME280;59146;43.850;25.948;2023-04-07T00:48:36;100881.72;;;5.15;57.34
71344;BME280;59146;43.850;25.948;2023-04-07T00:51:02;100829.72;;;4.69;57.31
71344;BME280;59146;43.850;25.948;2023-04-07T00:53:28;100794.75;;;4.56;57.21
71344;BME280;59146;43.850;25.948;2023-04-07T00:55:53;100824.38;;;4.73;57.45
71344;BME280;59146;43.850;25.948;2023-04-07T00:58:18;100893.81;;;5.15;57.95
71344;BME280;59146;43.850;25.948;2023-04-07T01:03:34;100822.09;;;4.91;57.06
71344;BME280;59146;43.850;25.948;2023-04-07T01:06:01;100844.91;;;5.06;57.09
71344;BME280;59146;43.850;25.948;2023-04-07T01:11:25;100882.06;;;5.55;56.10
71344;BME280;59146;43.850;25.948;2023-04-07T01:13:53;100835.13;;;5.14;57.00
71344;BME280;59146;43.850;25.948;2023-04-07T01:16:23;100807.88;;;5.04;58.05
71344;BME280;59146;43.850;25.948;2023-04-07T01:18:55;100866.16;;;5.41;57.59
71344;BME280;59146;43.850;25.948;2023-04-07T01:21:24;100830.91;;;5.11;57.67
71344;BME280;59146;43.850;25.948;2023-04-07T01:26:31;100878.16;;;5.44;56.79
71344;BME280;59146;43.850;25.948;2023-04-07T01:29:16;100823.78;;;5.18;57.08
71344;BME280;59146;43.850;25.948;2023-04-07T01:31:43;100877.59;;;5.60;56.72
71344;BME280;59146;43.850;25.948;2023-04-07T01:34:11;100898.63;;;5.76;56.19
71344;BME280;59146;43.850;25.948;2023-04-07T01:36:37;100866.06;;;5.44;56.25
71344;BME280;59146;43.850;25.948;2023-04-07T01:39:03;100834.78;;;5.24;56.40
71344;BME280;59146;43.850;25.948;2023-04-07T01:41:29;100821.34;;;5.13;56.40
71344;BME280;59146;43.850;25.948;2023-04-07T01:43:55;100832.34;;;5.20;56.66
71344;BME280;59146;43.850;25.948;2023-04-07T01:46:21;100880.25;;;5.33;57.16
71344;BME280;59146;43.850;25.948;2023-04-07T01:48:47;100826.06;;;5.02;57.59
71344;BME280;59146;43.850;25.948;2023-04-07T01:51:15;100819.97;;;5.03;58.10
71344;BME280;59146;43.850;25.948;2023-04-07T01:53:44;100829.31;;;5.07;57.71
71344;BME280;59146;43.850;25.948;2023-04-07T01:56:10;100896.50;;;5.38;57.82
71344;BME280;59146;43.850;25.948;2023-04-07T01:58:36;100865.66;;;5.30;58.02
71344;BME280;59146;43.850;25.948;2023-04-07T02:01:01;100881.78;;;5.38;58.28
71344;BME280;59146;43.850;25.948;2023-04-07T02:03:30;100880.06;;;5.39;57.83
71344;BME280;59146;43.850;25.948;2023-04-07T02:06:05;100893.81;;;5.41;58.03
71344;BME280;59146;43.850;25.948;2023-04-07T02:08:35;100871.63;;;5.32;56.99
71344;BME280;59146;43.850;25.948;2023-04-07T02:11:02;100830.16;;;5.08;57.51
71344;BME280;59146;43.850;25.948;2023-04-07T02:13:29;100895.81;;;5.33;57.31
71344;BME280;59146;43.850;25.948;2023-04-07T02:15:57;100882.13;;;5.29;57.78
71344;BME280;59146;43.850;25.948;2023-04-07T02:18:25;100729.84;;;4.36;56.52
71344;BME280;59146;43.850;25.948;2023-04-07T02:20:52;100881.31;;;5.27;56.34
71344;BME280;59146;43.850;25.948;2023-04-07T02:23:18;100835.09;;;4.89;57.25
71344;BME280;59146;43.850;25.948;2023-04-07T02:25:43;100838.41;;;4.94;57.61
71344;BME280;59146;43.850;25.948;2023-04-07T02:28:09;100812.19;;;4.77;58.27
71344;BME280;59146;43.850;25.948;2023-04-07T02:30:35;100809.69;;;4.74;57.89
71344;BME280;59146;43.850;25.948;2023-04-07T02:33:00;100891.91;;;5.20;58.08
71344;BME280;59146;43.850;25.948;2023-04-07T02:35:26;100883.53;;;5.12;58.00
71344;BME280;59146;43.850;25.948;2023-04-07T02:37:51;100882.75;;;5.10;58.00
71344;BME280;59146;43.850;25.948;2023-04-07T02:40:17;100822.88;;;4.66;58.22
71344;BME280;59146;43.850;25.948;2023-04-07T02:42:43;100856.66;;;4.90;59.03
71344;BME280;59146;43.850;25.948;2023-04-07T02:45:09;100736.53;;;4.15;58.78
71344;BME280;59146;43.850;25.948;2023-04-07T02:47:35;100882.22;;;4.99;59.62
71344;BME280;59146;43.850;25.948;2023-04-07T02:50:01;100908.50;;;5.14;60.08
71344;BME280;59146;43.850;25.948;2023-04-07T02:52:26;100906.44;;;5.25;60.16
71344;BME280;59146;43.850;25.948;2023-04-07T02:54:52;100915.00;;;5.00;59.76
71344;BME280;59146;43.850;25.948;2023-04-07T02:57:18;100902.81;;;5.03;60.04
71344;BME280;59146;43.850;25.948;2023-04-07T02:59:43;100851.34;;;4.66;58.91
71344;BME280;59146;43.850;25.948;2023-04-07T03:02:09;100891.50;;;4.79;59.60
71344;BME280;59146;43.850;25.948;2023-04-07T03:04:34;100853.88;;;4.68;59.10
71344;BME280;59146;43.850;25.948;2023-04-07T03:07:00;100895.28;;;4.96;58.98
71344;BME280;59146;43.850;25.948;2023-04-07T03:09:25;100841.34;;;4.56;59.21
71344;BME280;59146;43.850;25.948;2023-04-07T03:11:51;100846.41;;;4.59;59.57
71344;BME280;59146;43.850;25.948;2023-04-07T03:14:17;100915.53;;;5.11;59.18
71344;BME280;59146;43.850;25.948;2023-04-07T03:16:42;100907.09;;;5.04;59.27
71344;BME280;59146;43.850;25.948;2023-04-07T03:19:08;100840.13;;;4.40;59.20
71344;BME280;59146;43.850;25.948;2023-04-07T03:21:35;100790.16;;;4.09;58.96
71344;BME280;59146;43.850;25.948;2023-04-07T03:24:01;100905.56;;;4.71;59.06
71344;BME280;59146;43.850;25.948;2023-04-07T03:26:26;100854.78;;;4.39;59.15
71344;BME280;59146;43.850;25.948;2023-04-07T03:28:51;100929.34;;;4.82;59.01
71344;BME280;59146;43.850;25.948;2023-04-07T03:31:17;100849.53;;;4.41;59.01
71344;BME280;59146;43.850;25.948;2023-04-07T03:33:42;100936.19;;;4.84;59.19
71344;BME280;59146;43.850;25.948;2023-04-07T03:36:08;100920.13;;;4.73;59.26
71344;BME280;59146;43.850;25.948;2023-04-07T03:38:33;100853.56;;;4.22;58.99
71344;BME280;59146;43.850;25.948;2023-04-07T03:40:59;100913.44;;;4.66;58.96
71344;BME280;59146;43.850;25.948;2023-04-07T03:43:25;100822.97;;;4.07;59.00
71344;BME280;59146;43.850;25.948;2023-04-07T03:45:52;100953.44;;;4.86;58.71
71344;BME280;59146;43.850;25.948;2023-04-07T03:48:18;100951.78;;;4.83;58.23
71344;BME280;59146;43.850;25.948;2023-04-07T03:50:44;100935.81;;;4.69;58.59
71344;BME280;59146;43.850;25.948;2023-04-07T03:53:10;100915.25;;;4.35;58.46
71344;BME280;59146;43.850;25.948;2023-04-07T03:55:38;100919.50;;;4.65;58.08
71344;BME280;59146;43.850;25.948;2023-04-07T03:58:03;100963.00;;;4.82;57.89
71344;BME280;59146;43.850;25.948;2023-04-07T04:00:29;100953.75;;;4.73;57.84
71344;BME280;59146;43.850;25.948;2023-04-07T04:02:57;100921.59;;;4.54;57.39
71344;BME280;59146;43.850;25.948;2023-04-07T04:05:23;100904.47;;;4.49;58.08
71344;BME280;59146;43.850;25.948;2023-04-07T04:07:48;100959.72;;;4.77;57.59
71344;BME280;59146;43.850;25.948;2023-04-07T04:10:15;100957.75;;;4.85;57.34
71344;BME280;59146;43.850;25.948;2023-04-07T04:12:40;100951.38;;;4.95;56.57
71344;BME280;59146;43.850;25.948;2023-04-07T04:15:06;100916.34;;;4.56;56.37
71344;BME280;59146;43.850;25.948;2023-04-07T04:17:32;100958.97;;;5.01;56.12
71344;BME280;59146;43.850;25.948;2023-04-07T04:19:57;100926.75;;;4.82;56.28
71344;BME280;59146;43.850;25.948;2023-04-07T04:22:22;100908.03;;;4.74;55.65
71344;BME280;59146;43.850;25.948;2023-04-07T04:24:48;100967.78;;;5.23;56.19
71344;BME280;59146;43.850;25.948;2023-04-07T04:27:13;100922.19;;;5.18;56.01
71344;BME280;59146;43.850;25.948;2023-04-07T04:29:39;100982.25;;;5.56;54.53
71344;BME280;59146;43.850;25.948;2023-04-07T04:32:04;100924.88;;;5.41;54.18
71344;BME280;59146;43.850;25.948;2023-04-07T04:34:30;100940.09;;;5.51;53.66
71344;BME280;59146;43.850;25.948;2023-04-07T04:36:56;100968.16;;;5.65;53.84
71344;BME280;59146;43.850;25.948;2023-04-07T04:39:21;100929.44;;;5.60;53.41
71344;BME280;59146;43.850;25.948;2023-04-07T04:41:47;100974.22;;;6.86;51.23
71344;BME280;59146;43.850;25.948;2023-04-07T04:44:12;100932.53;;;8.34;46.46
71344;BME280;59146;43.850;25.948;2023-04-07T04:46:37;100944.94;;;9.04;45.20
71344;BME280;59146;43.850;25.948;2023-04-07T04:49:03;100934.03;;;8.77;45.93
71344;BME280;59146;43.850;25.948;2023-04-07T04:51:28;100993.41;;;9.96;43.80
71344;BME280;59146;43.850;25.948;2023-04-07T04:53:54;100949.13;;;9.95;41.97
71344;BME280;59146;43.850;25.948;2023-04-07T04:56:19;101009.13;;;10.46;41.79
71344;BME280;59146;43.850;25.948;2023-04-07T04:58:45;101003.19;;;10.75;41.94
71344;BME280;59146;43.850;25.948;2023-04-07T05:01:11;100985.00;;;10.74;42.01
71344;BME280;59146;43.850;25.948;2023-04-07T05:03:37;100966.16;;;11.61;39.76
71344;BME280;59146;43.850;25.948;2023-04-07T05:06:03;100991.25;;;11.34;39.69
71344;BME280;59146;43.850;25.948;2023-04-07T05:08:28;100934.94;;;10.66;39.97
71344;BME280;59146;43.850;25.948;2023-04-07T05:10:54;100951.28;;;11.00;40.03
71344;BME280;59146;43.850;25.948;2023-04-07T05:13:20;101008.84;;;10.83;39.38
71344;BME280;59146;43.850;25.948;2023-04-07T05:15:45;100948.28;;;9.94;40.75
71344;BME280;59146;43.850;25.948;2023-04-07T05:18:11;100985.91;;;10.73;38.85
71344;BME280;59146;43.850;25.948;2023-04-07T05:20:36;101030.56;;;11.63;38.20
71344;BME280;59146;43.850;25.948;2023-04-07T05:23:02;101002.13;;;10.47;39.76
71344;BME280;59146;43.850;25.948;2023-04-07T05:25:27;100976.22;;;10.59;39.17
71344;BME280;59146;43.850;25.948;2023-04-07T05:27:53;101027.28;;;11.13;38.79
71344;BME280;59146;43.850;25.948;2023-04-07T05:30:18;101016.41;;;11.52;37.67
71344;BME280;59146;43.850;25.948;2023-04-07T05:32:44;101035.63;;;12.12;36.50
71344;BME280;59146;43.850;25.948;2023-04-07T05:35:09;101049.72;;;11.17;38.49
71344;BME280;59146;43.850;25.948;2023-04-07T05:37:35;101031.75;;;11.11;38.84
71344;BME280;59146;43.850;25.948;2023-04-07T05:40:00;101037.94;;;9.75;40.67
71344;BME280;59146;43.850;25.948;2023-04-07T05:42:26;100946.41;;;8.91;42.46
71344;BME280;59146;43.850;25.948;2023-04-07T05:44:51;101056.19;;;9.39;42.28
71344;BME280;59146;43.850;25.948;2023-04-07T05:47:16;100984.41;;;8.57;43.85
71344;BME280;59146;43.850;25.948;2023-04-07T05:49:42;100992.13;;;8.40;44.32
71344;BME280;59146;43.850;25.948;2023-04-07T05:52:13;101067.75;;;8.37;45.60
71344;BME280;59146;43.850;25.948;2023-04-07T05:54:39;101074.66;;;8.38;45.55
71344;BME280;59146;43.850;25.948;2023-04-07T05:57:05;101022.00;;;7.90;46.24
71344;BME280;59146;43.850;25.948;2023-04-07T05:59:32;101048.94;;;8.51;45.51
71344;BME280;59146;43.850;25.948;2023-04-07T06:01:57;101003.22;;;8.24;45.92
71344;BME280;59146;43.850;25.948;2023-04-07T06:04:23;100884.75;;;7.36;46.00
71344;BME280;59146;43.850;25.948;2023-04-07T06:06:48;101068.53;;;8.59;46.21
71344;BME280;59146;43.850;25.948;2023-04-07T06:09:14;101054.25;;;9.07;45.41
71344;BME280;59146;43.850;25.948;2023-04-07T06:11:39;101049.81;;;9.09;45.19
71344;BME280;59146;43.850;25.948;2023-04-07T06:14:08;101058.03;;;8.81;45.38
71344;BME280;59146;43.850;25.948;2023-04-07T06:16:33;101019.31;;;8.53;46.00
71344;BME280;59146;43.850;25.948;2023-04-07T06:21:41;101067.69;;;7.97;47.51
71344;BME280;59146;43.850;25.948;2023-04-07T06:24:10;101087.69;;;8.17;48.15
71344;BME280;59146;43.850;25.948;2023-04-07T06:26:36;101087.28;;;8.06;46.83
71344;BME280;59146;43.850;25.948;2023-04-07T06:29:01;101028.66;;;7.97;47.20
71344;BME280;59146;43.850;25.948;2023-04-07T06:31:27;101084.22;;;8.97;45.91
71344;BME280;59146;43.850;25.948;2023-04-07T06:33:53;101073.28;;;9.09;44.98
71344;BME280;59146;43.850;25.948;2023-04-07T06:36:20;101081.66;;;9.52;45.41
71344;BME280;59146;43.850;25.948;2023-04-07T06:38:45;101055.09;;;9.80;43.52
71344;BME280;59146;43.850;25.948;2023-04-07T06:41:11;101041.44;;;9.92;43.74
71344;BME280;59146;43.850;25.948;2023-04-07T06:43:42;101093.84;;;9.52;45.31
71344;BME280;59146;43.850;25.948;2023-04-07T06:46:10;101099.28;;;9.83;45.24
71344;BME280;59146;43.850;25.948;2023-04-07T06:48:36;101032.38;;;9.82;43.35
71344;BME280;59146;43.850;25.948;2023-04-07T06:51:01;101091.59;;;10.50;42.75
71344;BME280;59146;43.850;25.948;2023-04-07T06:53:27;101091.06;;;10.44;42.33
71344;BME280;59146;43.850;25.948;2023-04-07T06:56:10;101059.28;;;9.47;44.19
71344;BME280;59146;43.850;25.948;2023-04-07T06:58:36;101120.19;;;10.00;43.84
71344;BME280;59146;43.850;25.948;2023-04-07T07:01:03;101065.09;;;10.06;42.90
71344;BME280;59146;43.850;25.948;2023-04-07T07:03:29;101081.88;;;10.19;43.73
71344;BME280;59146;43.850;25.948;2023-04-07T07:05:56;101080.13;;;9.66;44.45
71344;BME280;59146;43.850;25.948;2023-04-07T07:08:22;101115.22;;;9.77;45.82
71344;BME280;59146;43.850;25.948;2023-04-07T07:10:47;101118.13;;;10.25;43.73
71344;BME280;59146;43.850;25.948;2023-04-07T07:13:13;101063.69;;;9.82;44.08
71344;BME280;59146;43.850;25.948;2023-04-07T07:15:38;101069.22;;;9.39;44.90
71344;BME280;59146;43.850;25.948;2023-04-07T07:18:04;101092.66;;;9.40;44.83
71344;BME280;59146;43.850;25.948;2023-04-07T07:20:29;101074.63;;;9.53;45.38
71344;BME280;59146;43.850;25.948;2023-04-07T07:22:55;101132.25;;;10.21;44.98
71344;BME280;59146;43.850;25.948;2023-04-07T07:25:21;101075.34;;;10.11;44.08
71344;BME280;59146;43.850;25.948;2023-04-07T07:27:47;101104.06;;;9.92;44.34
71344;BME280;59146;43.850;25.948;2023-04-07T07:30:17;101124.22;;;10.07;45.67
71344;BME280;59146;43.850;25.948;2023-04-07T07:32:43;101120.41;;;10.14;45.78
71344;BME280;59146;43.850;25.948;2023-04-07T07:35:08;101139.47;;;10.85;43.81
71344;BME280;59146;43.850;25.948;2023-04-07T07:37:34;101133.75;;;10.77;42.59
71344;BME280;59146;43.850;25.948;2023-04-07T07:39:59;101082.81;;;10.68;42.96
71344;BME280;59146;43.850;25.948;2023-04-07T07:42:25;101119.78;;;10.78;42.73
71344;BME280;59146;43.850;25.948;2023-04-07T07:44:51;101078.41;;;10.86;41.56
71344;BME280;59146;43.850;25.948;2023-04-07T07:47:16;101147.28;;;10.16;44.31
71344;BME280;59146;43.850;25.948;2023-04-07T07:49:42;101095.78;;;10.01;44.26
71344;BME280;59146;43.850;25.948;2023-04-07T07:52:07;101147.59;;;10.27;43.71
71344;BME280;59146;43.850;25.948;2023-04-07T07:54:33;101122.56;;;10.23;44.53
71344;BME280;59146;43.850;25.948;2023-04-07T07:56:58;101085.19;;;10.04;43.85
71344;BME280;59146;43.850;25.948;2023-04-07T07:59:24;101098.38;;;10.01;45.45
71344;BME280;59146;43.850;25.948;2023-04-07T08:01:49;101135.94;;;10.17;44.81
71344;BME280;59146;43.850;25.948;2023-04-07T08:04:14;101112.91;;;10.43;45.20
71344;BME280;59146;43.850;25.948;2023-04-07T08:06:40;101101.06;;;10.00;44.57
71344;BME280;59146;43.850;25.948;2023-04-07T08:09:06;101134.06;;;9.65;45.20
71344;BME280;59146;43.850;25.948;2023-04-07T08:11:32;101070.16;;;9.56;45.60
71344;BME280;59146;43.850;25.948;2023-04-07T08:13:57;101107.34;;;10.14;44.87
71344;BME280;59146;43.850;25.948;2023-04-07T08:16:23;101141.78;;;10.39;45.99
71344;BME280;59146;43.850;25.948;2023-04-07T08:18:48;101048.31;;;9.59;45.72
71344;BME280;59146;43.850;25.948;2023-04-07T08:21:14;101129.09;;;9.96;46.42
71344;BME280;59146;43.850;25.948;2023-04-07T08:23:39;101151.13;;;10.08;45.18
71344;BME280;59146;43.850;25.948;2023-04-07T08:26:05;101131.81;;;10.30;44.42
71344;BME280;59146;43.850;25.948;2023-04-07T08:28:30;101078.78;;;9.76;45.95
71344;BME280;59146;43.850;25.948;2023-04-07T08:30:56;101139.66;;;9.93;45.60
71344;BME280;59146;43.850;25.948;2023-04-07T08:33:21;101139.03;;;10.07;46.10
71344;BME280;59146;43.850;25.948;2023-04-07T08:35:47;101144.03;;;10.47;45.94
71344;BME280;59146;43.850;25.948;2023-04-07T08:38:13;101085.38;;;10.18;45.37
71344;BME280;59146;43.850;25.948;2023-04-07T08:40:38;101141.28;;;10.14;46.17
71344;BME280;59146;43.850;25.948;2023-04-07T08:43:08;101145.97;;;10.25;46.49
71344;BME280;59146;43.850;25.948;2023-04-07T08:45:38;101157.13;;;10.46;44.90
71344;BME280;59146;43.850;25.948;2023-04-07T08:48:11;101141.31;;;10.49;44.99
71344;BME280;59146;43.850;25.948;2023-04-07T08:50:41;101151.00;;;10.64;44.42
71344;BME280;59146;43.850;25.948;2023-04-07T08:53:11;101146.50;;;10.14;45.80
71344;BME280;59146;43.850;25.948;2023-04-07T08:55:37;101139.78;;;10.27;44.58
71344;BME280;59146;43.850;25.948;2023-04-07T08:58:03;101109.63;;;9.85;47.03
71344;BME280;59146;43.850;25.948;2023-04-07T09:00:29;101102.63;;;9.68;45.84
71344;BME280;59146;43.850;25.948;2023-04-07T09:02:56;101147.44;;;10.13;45.84
71344;BME280;59146;43.850;25.948;2023-04-07T09:05:22;101100.69;;;9.90;45.41
71344;BME280;59146;43.850;25.948;2023-04-07T09:07:49;101139.84;;;10.60;44.46
71344;BME280;59146;43.850;25.948;2023-04-07T09:10:15;101043.16;;;10.27;43.31
71344;BME280;59146;43.850;25.948;2023-04-07T09:12:43;101168.41;;;10.29;45.60
71344;BME280;59146;43.850;25.948;2023-04-07T09:15:09;101098.03;;;9.73;45.30
71344;BME280;59146;43.850;25.948;2023-04-07T09:17:35;101174.09;;;10.37;45.58
71344;BME280;59146;43.850;25.948;2023-04-07T09:20:01;101084.41;;;9.85;43.73
71344;BME280;59146;43.850;25.948;2023-04-07T09:22:36;101161.97;;;10.36;44.36
71344;BME280;59146;43.850;25.948;2023-04-07T09:25:19;101153.63;;;10.47;44.16
71344;BME280;59146;43.850;25.948;2023-04-07T09:28:13;101126.31;;;10.69;44.56
71344;BME280;59146;43.850;25.948;2023-04-07T09:30:51;101134.31;;;11.16;42.11
71344;BME280;59146;43.850;25.948;2023-04-07T09:33:26;101132.91;;;11.26;41.70
71344;BME280;59146;43.850;25.948;2023-04-07T09:35:52;101100.09;;;10.88;41.99
71344;BME280;59146;43.850;25.948;2023-04-07T09:38:18;101168.34;;;10.99;42.38
71344;BME280;59146;43.850;25.948;2023-04-07T09:40:43;101098.31;;;10.38;42.51
71344;BME280;59146;43.850;25.948;2023-04-07T09:43:15;101112.50;;;10.50;43.74
71344;BME280;59146;43.850;25.948;2023-04-07T09:45:41;101164.03;;;10.98;42.92
71344;BME280;59146;43.850;25.948;2023-04-07T09:48:20;101112.84;;;10.94;41.75
71344;BME280;59146;43.850;25.948;2023-04-07T09:50:46;101143.75;;;11.18;41.40
71344;BME280;59146;43.850;25.948;2023-04-07T09:53:14;101120.97;;;11.05;41.70
71344;BME280;59146;43.850;25.948;2023-04-07T09:55:41;101131.91;;;10.79;42.88
71344;BME280;59146;43.850;25.948;2023-04-07T09:58:11;101103.69;;;10.35;42.85
71344;BME280;59146;43.850;25.948;2023-04-07T10:00:38;101178.72;;;11.00;42.26
71344;BME280;59146;43.850;25.948;2023-04-07T10:03:04;101107.31;;;11.15;41.97
71344;BME280;59146;43.850;25.948;2023-04-07T10:05:30;101019.25;;;10.35;42.92
71344;BME280;59146;43.850;25.948;2023-04-07T10:07:55;101159.34;;;11.37;42.24
71344;BME280;59146;43.850;25.948;2023-04-07T10:10:21;101103.44;;;11.07;41.58
71344;BME280;59146;43.850;25.948;2023-04-07T10:12:47;101174.34;;;11.01;42.44
71344;BME280;59146;43.850;25.948;2023-04-07T10:15:14;101130.34;;;10.59;42.53
71344;BME280;59146;43.850;25.948;2023-04-07T10:17:46;101142.13;;;11.00;42.67
71344;BME280;59146;43.850;25.948;2023-04-07T10:20:14;101189.59;;;11.26;41.82
71344;BME280;59146;43.850;25.948;2023-04-07T10:22:41;101183.56;;;11.08;42.24
71344;BME280;59146;43.850;25.948;2023-04-07T10:25:11;101106.97;;;10.56;42.32
71344;BME280;59146;43.850;25.948;2023-04-07T10:27:38;101191.00;;;11.15;41.83
71344;BME280;59146;43.850;25.948;2023-04-07T10:30:12;101123.16;;;10.80;40.93
71344;BME280;59146;43.850;25.948;2023-04-07T10:32:51;101118.88;;;11.27;40.50
71344;BME280;59146;43.850;25.948;2023-04-07T10:35:17;101186.25;;;11.87;39.99
71344;BME280;59146;43.850;25.948;2023-04-07T10:40:38;101167.34;;;11.82;39.73
71344;BME280;59146;43.850;25.948;2023-04-07T10:43:05;101147.41;;;11.80;39.99
71344;BME280;59146;43.850;25.948;2023-04-07T10:48:14;101130.28;;;11.26;39.24
71344;BME280;59146;43.850;25.948;2023-04-07T10:50:39;101181.00;;;11.72;40.08
71344;BME280;59146;43.850;25.948;2023-04-07T10:53:10;101151.50;;;11.37;40.05
71344;BME280;59146;43.850;25.948;2023-04-07T10:55:40;101121.06;;;11.03;40.58
71344;BME280;59146;43.850;25.948;2023-04-07T10:58:24;101091.91;;;11.42;40.71
71344;BME280;59146;43.850;25.948;2023-04-07T11:03:22;101167.50;;;11.79;39.73
71344;BME280;59146;43.850;25.948;2023-04-07T11:05:48;101191.66;;;11.84;40.82
71344;BME280;59146;43.850;25.948;2023-04-07T11:08:14;101189.47;;;12.53;39.78
71344;BME280;59146;43.850;25.948;2023-04-07T11:10:39;101141.06;;;12.45;38.75
71344;BME280;59146;43.850;25.948;2023-04-07T11:13:11;101181.09;;;12.62;38.62
71344;BME280;59146;43.850;25.948;2023-04-07T11:15:37;101162.28;;;11.95;40.11
71344;BME280;59146;43.850;25.948;2023-04-07T11:18:17;101193.44;;;12.00;41.58
71344;BME280;59146;43.850;25.948;2023-04-07T11:20:56;101179.06;;;12.07;39.74
71344;BME280;59146;43.850;25.948;2023-04-07T11:23:23;101024.25;;;11.05;39.96
71344;BME280;59146;43.850;25.948;2023-04-07T11:25:58;101161.09;;;11.85;40.42
71344;BME280;59146;43.850;25.948;2023-04-07T11:28:26;101145.25;;;11.55;42.14
71344;BME280;59146;43.850;25.948;2023-04-07T11:30:52;101131.69;;;11.95;39.82
71344;BME280;59146;43.850;25.948;2023-04-07T11:33:27;101167.16;;;13.20;38.03
71344;BME280;59146;43.850;25.948;2023-04-07T11:35:56;101187.22;;;13.21;38.70
71344;BME280;59146;43.850;25.948;2023-04-07T11:38:25;101159.66;;;12.70;37.34
71344;BME280;59146;43.850;25.948;2023-04-07T11:40:52;101171.13;;;12.97;36.87
71344;BME280;59146;43.850;25.948;2023-04-07T11:43:23;101133.03;;;13.20;36.91
71344;BME280;59146;43.850;25.948;2023-04-07T11:46:36;101167.47;;;13.00;37.52
71344;BME280;59146;43.850;25.948;2023-04-07T11:49:10;101159.88;;;12.81;37.66
71344;BME280;59146;43.850;25.948;2023-04-07T11:51:36;101157.47;;;12.92;36.95
71344;BME280;59146;43.850;25.948;2023-04-07T11:54:01;101166.53;;;12.87;37.58
71344;BME280;59146;43.850;25.948;2023-04-07T11:56:27;101161.00;;;12.47;38.11
71344;BME280;59146;43.850;25.948;2023-04-07T11:58:54;101120.94;;;12.16;39.83
71344;BME280;59146;43.850;25.948;2023-04-07T12:01:21;101165.13;;;12.51;39.71
71344;BME280;59146;43.850;25.948;2023-04-07T12:03:58;101182.47;;;12.54;40.52
71344;BME280;59146;43.850;25.948;2023-04-07T12:06:27;101152.47;;;11.98;40.59
71344;BME280;59146;43.850;25.948;2023-04-07T12:09:01;101176.88;;;11.83;40.58
71344;BME280;59146;43.850;25.948;2023-04-07T12:11:27;101173.09;;;11.89;41.08
71344;BME280;59146;43.850;25.948;2023-04-07T12:13:53;101167.06;;;12.18;41.04
71344;BME280;59146;43.850;25.948;2023-04-07T12:16:19;101184.13;;;12.55;40.24
71344;BME280;59146;43.850;25.948;2023-04-07T12:18:45;101186.34;;;13.06;40.24
71344;BME280;59146;43.850;25.948;2023-04-07T12:21:11;100987.19;;;11.75;38.29
71344;BME280;59146;43.850;25.948;2023-04-07T12:23:36;101165.97;;;12.96;38.06
71344;BME280;59146;43.850;25.948;2023-04-07T12:26:02;101181.41;;;12.86;38.64
71344;BME280;59146;43.850;25.948;2023-04-07T12:28:27;101129.47;;;12.49;39.89
71344;BME280;59146;43.850;25.948;2023-04-07T12:30:53;101129.06;;;12.41;39.65
71344;BME280;59146;43.850;25.948;2023-04-07T12:33:19;101162.09;;;12.73;39.82
71344;BME280;59146;43.850;25.948;2023-04-07T12:35:45;101195.38;;;12.12;41.21
71344;BME280;59146;43.850;25.948;2023-04-07T12:38:11;101200.09;;;12.21;42.04
71344;BME280;59146;43.850;25.948;2023-04-07T12:40:36;101133.06;;;11.87;41.17
71344;BME280;59146;43.850;25.948;2023-04-07T12:43:02;101170.38;;;11.90;42.55
71344;BME280;59146;43.850;25.948;2023-04-07T12:45:28;101125.81;;;11.44;42.63
71344;BME280;59146;43.850;25.948;2023-04-07T12:47:55;101150.38;;;11.26;44.04
71344;BME280;59146;43.850;25.948;2023-04-07T12:50:21;101154.75;;;11.25;44.91
71344;BME280;59146;43.850;25.948;2023-04-07T12:52:46;101113.63;;;10.79;44.99
71344;BME280;59146;43.850;25.948;2023-04-07T12:55:12;101127.81;;;11.23;44.98
71344;BME280;59146;43.850;25.948;2023-04-07T12:57:38;101208.16;;;11.54;44.29
71344;BME280;59146;43.850;25.948;2023-04-07T13:00:04;101193.63;;;11.31;45.88
71344;BME280;59146;43.850;25.948;2023-04-07T13:02:30;101160.16;;;11.38;44.83
71344;BME280;59146;43.850;25.948;2023-04-07T13:04:55;101193.50;;;11.82;44.61